sensor_id;sensor_type;location;lat;lon;timestamp;pressure;altitude;pressure_sealevel;temperature
19196;BMP280;9730;48.926;11.376;2022-11-20T00:01:27;96600.91;;;2.53
19196;BMP280;9730;48.926;11.376;2022-11-20T00:03:55;96598.75;;;2.70
19196;BMP280;9730;48.926;11.376;2022-11-20T00:06:23;96599.66;;;2.67
19196;BMP280;9730;48.926;11.376;2022-11-20T00:08:50;96589.97;;;2.59
19196;BMP280;9730;48.926;11.376;2022-11-20T00:11:18;96581.84;;;2.54
19196;BMP280;9730;48.926;11.376;2022-11-20T00:13:46;96579.19;;;2.58
19196;BMP280;9730;48.926;11.376;2022-11-20T00:16:15;96572.09;;;2.73
19196;BMP280;9730;48.926;11.376;2022-11-20T00:18:44;96569.31;;;2.82
19196;BMP280;9730;48.926;11.376;2022-11-20T00:21:12;96570.91;;;2.85
19196;BMP280;9730;48.926;11.376;2022-11-20T00:23:39;96573.53;;;2.80
19196;BMP280;9730;48.926;11.376;2022-11-20T00:26:08;96575.13;;;2.83
19196;BMP280;9730;48.926;11.376;2022-11-20T00:28:35;96569.91;;;2.90
19196;BMP280;9730;48.926;11.376;2022-11-20T00:31:02;96560.72;;;2.92
19196;BMP280;9730;48.926;11.376;2022-11-20T00:33:30;96567.50;;;2.87
19196;BMP280;9730;48.926;11.376;2022-11-20T00:36:01;96564.75;;;2.95
19196;BMP280;9730;48.926;11.376;2022-11-20T00:38:29;96571.34;;;2.97
19196;BMP280;9730;48.926;11.376;2022-11-20T00:40:56;96570.69;;;2.91
19196;BMP280;9730;48.926;11.376;2022-11-20T00:43:24;96568.03;;;2.97
19196;BMP280;9730;48.926;11.376;2022-11-20T00:45:51;96574.69;;;2.96
19196;BMP280;9730;48.926;11.376;2022-11-20T00:48:21;96576.25;;;2.99
19196;BMP280;9730;48.926;11.376;2022-11-20T00:50:48;96585.03;;;2.84
19196;BMP280;9730;48.926;11.376;2022-11-20T00:53:16;96572.72;;;2.80
19196;BMP280;9730;48.926;11.376;2022-11-20T00:55:42;96573.47;;;2.82
19196;BMP280;9730;48.926;11.376;2022-11-20T00:58:09;96572.69;;;2.81
19196;BMP280;9730;48.926;11.376;2022-11-20T01:00:35;96564.31;;;2.82
19196;BMP280;9730;48.926;11.376;2022-11-20T01:03:02;96573.44;;;2.83
19196;BMP280;9730;48.926;11.376;2022-11-20T01:05:29;96577.50;;;2.86
19196;BMP280;9730;48.926;11.376;2022-11-20T01:07:55;96572.97;;;2.98
19196;BMP280;9730;48.926;11.376;2022-11-20T01:10:23;96575.47;;;2.98
19196;BMP280;9730;48.926;11.376;2022-11-20T01:12:49;96578.47;;;2.82
19196;BMP280;9730;48.926;11.376;2022-11-20T01:15:36;96589.31;;;2.79
19196;BMP280;9730;48.926;11.376;2022-11-20T01:18:03;96592.75;;;2.75
19196;BMP280;9730;48.926;11.376;2022-11-20T01:20:34;96593.31;;;2.85
19196;BMP280;9730;48.926;11.376;2022-11-20T01:23:00;96599.75;;;2.92
19196;BMP280;9730;48.926;11.376;2022-11-20T01:25:28;96592.91;;;2.98
19196;BMP280;9730;48.926;11.376;2022-11-20T01:27:55;96586.19;;;3.00
19196;BMP280;9730;48.926;11.376;2022-11-20T01:30:22;96589.56;;;2.98
19196;BMP280;9730;48.926;11.376;2022-11-20T01:32:48;96593.09;;;2.92
19196;BMP280;9730;48.926;11.376;2022-11-20T01:35:15;96577.09;;;2.99
19196;BMP280;9730;48.926;11.376;2022-11-20T01:37:41;96585.78;;;2.86
19196;BMP280;9730;48.926;11.376;2022-11-20T01:40:09;96589.16;;;2.85
19196;BMP280;9730;48.926;11.376;2022-11-20T01:42:37;96575.81;;;2.86
19196;BMP280;9730;48.926;11.376;2022-11-20T01:45:50;96568.88;;;2.96
19196;BMP280;9730;48.926;11.376;2022-11-20T01:48:20;96573.13;;;2.94
19196;BMP280;9730;48.926;11.376;2022-11-20T01:50:48;96571.34;;;2.97
19196;BMP280;9730;48.926;11.376;2022-11-20T01:53:16;96573.72;;;3.00
19196;BMP280;9730;48.926;11.376;2022-11-20T01:55:47;96578.16;;;2.92
19196;BMP280;9730;48.926;11.376;2022-11-20T01:58:20;96583.69;;;3.00
19196;BMP280;9730;48.926;11.376;2022-11-20T02:00:48;96575.84;;;3.12
19196;BMP280;9730;48.926;11.376;2022-11-20T02:03:16;96587.50;;;3.12
19196;BMP280;9730;48.926;11.376;2022-11-20T02:05:46;96579.25;;;3.10
19196;BMP280;9730;48.926;11.376;2022-11-20T02:08:17;96575.94;;;3.09
19196;BMP280;9730;48.926;11.376;2022-11-20T02:10:44;96577.81;;;3.03
19196;BMP280;9730;48.926;11.376;2022-11-20T02:13:11;96576.03;;;3.06
19196;BMP280;9730;48.926;11.376;2022-11-20T02:15:56;96577.81;;;3.03
19196;BMP280;9730;48.926;11.376;2022-11-20T02:18:23;96577.47;;;3.13
19196;BMP280;9730;48.926;11.376;2022-11-20T02:20:53;96568.13;;;3.19
19196;BMP280;9730;48.926;11.376;2022-11-20T02:23:24;96585.06;;;3.09
19196;BMP280;9730;48.926;11.376;2022-11-20T02:25:55;96575.16;;;3.07
19196;BMP280;9730;48.926;11.376;2022-11-20T02:28:22;96569.28;;;3.10
19196;BMP280;9730;48.926;11.376;2022-11-20T02:30:49;96570.28;;;3.04
19196;BMP280;9730;48.926;11.376;2022-11-20T02:33:16;96575.25;;;3.04
19196;BMP280;9730;48.926;11.376;2022-11-20T02:35:44;96555.88;;;3.14
19196;BMP280;9730;48.926;11.376;2022-11-20T02:38:11;96563.91;;;3.21
19196;BMP280;9730;48.926;11.376;2022-11-20T02:40:38;96572.97;;;2.98
19196;BMP280;9730;48.926;11.376;2022-11-20T02:43:06;96556.38;;;2.97
19196;BMP280;9730;48.926;11.376;2022-11-20T02:45:32;96546.06;;;3.09
19196;BMP280;9730;48.926;11.376;2022-11-20T02:47:59;96546.00;;;3.11
19196;BMP280;9730;48.926;11.376;2022-11-20T02:50:25;96546.06;;;3.09
19196;BMP280;9730;48.926;11.376;2022-11-20T02:52:52;96540.22;;;3.09
19196;BMP280;9730;48.926;11.376;2022-11-20T02:55:18;96538.72;;;3.05
19196;BMP280;9730;48.926;11.376;2022-11-20T02:57:45;96539.31;;;3.11
19196;BMP280;9730;48.926;11.376;2022-11-20T03:00:15;96536.66;;;3.17
19196;BMP280;9730;48.926;11.376;2022-11-20T03:02:41;96535.97;;;3.12
19196;BMP280;9730;48.926;11.376;2022-11-20T03:05:08;96542.03;;;3.05
19196;BMP280;9730;48.926;11.376;2022-11-20T03:07:34;96541.66;;;3.17
19196;BMP280;9730;48.926;11.376;2022-11-20T03:10:01;96531.75;;;3.14
19196;BMP280;9730;48.926;11.376;2022-11-20T03:12:27;96526.69;;;3.17
19196;BMP280;9730;48.926;11.376;2022-11-20T03:14:54;96526.75;;;3.14
19196;BMP280;9730;48.926;11.376;2022-11-20T03:17:22;96524.47;;;3.08
19196;BMP280;9730;48.926;11.376;2022-11-20T03:19:48;96526.22;;;3.06
19196;BMP280;9730;48.926;11.376;2022-11-20T03:22:15;96517.84;;;3.07
19196;BMP280;9730;48.926;11.376;2022-11-20T03:24:41;96512.75;;;3.12
19196;BMP280;9730;48.926;11.376;2022-11-20T03:27:08;96518.31;;;3.18
19196;BMP280;9730;48.926;11.376;2022-11-20T03:29:35;96521.59;;;3.20
19196;BMP280;9730;48.926;11.376;2022-11-20T03:32:02;96523.25;;;3.19
19196;BMP280;9730;48.926;11.376;2022-11-20T03:34:30;96523.16;;;3.22
19196;BMP280;9730;48.926;11.376;2022-11-20T03:36:56;96534.91;;;3.19
19196;BMP280;9730;48.926;11.376;2022-11-20T03:39:23;96532.53;;;3.16
19196;BMP280;9730;48.926;11.376;2022-11-20T03:41:49;96525.63;;;3.24
19196;BMP280;9730;48.926;11.376;2022-11-20T03:44:16;96529.88;;;3.20
19196;BMP280;9730;48.926;11.376;2022-11-20T03:46:42;96525.66;;;3.22
19196;BMP280;9730;48.926;11.376;2022-11-20T03:49:09;96523.25;;;3.19
19196;BMP280;9730;48.926;11.376;2022-11-20T03:51:37;96525.84;;;3.16
19196;BMP280;9730;48.926;11.376;2022-11-20T03:54:07;96521.41;;;3.26
19196;BMP280;9730;48.926;11.376;2022-11-20T03:56:36;96520.31;;;3.33
19196;BMP280;9730;48.926;11.376;2022-11-20T03:59:04;96517.88;;;3.31
19196;BMP280;9730;48.926;11.376;2022-11-20T04:01:32;96506.38;;;3.27
19196;BMP280;9730;48.926;11.376;2022-11-20T04:03:59;96494.03;;;3.24
19196;BMP280;9730;48.926;11.376;2022-11-20T04:06:27;96493.88;;;3.29
19196;BMP280;9730;48.926;11.376;2022-11-20T04:08:56;96484.53;;;3.35
19196;BMP280;9730;48.926;11.376;2022-11-20T04:11:24;96486.03;;;3.39
19196;BMP280;9730;48.926;11.376;2022-11-20T04:13:52;96481.56;;;3.49
19196;BMP280;9730;48.926;11.376;2022-11-20T04:16:20;96489.25;;;3.43
19196;BMP280;9730;48.926;11.376;2022-11-20T04:18:47;96484.19;;;3.44
19196;BMP280;9730;48.926;11.376;2022-11-20T04:21:13;96491.84;;;3.40
19196;BMP280;9730;48.926;11.376;2022-11-20T04:23:40;96488.38;;;3.44
19196;BMP280;9730;48.926;11.376;2022-11-20T04:26:09;96493.41;;;3.42
19196;BMP280;9730;48.926;11.376;2022-11-20T04:28:37;96486.97;;;3.60
19196;BMP280;9730;48.926;11.376;2022-11-20T04:31:05;96493.53;;;3.62
19196;BMP280;9730;48.926;11.376;2022-11-20T04:33:32;96486.28;;;3.56
19196;BMP280;9730;48.926;11.376;2022-11-20T04:36:01;96482.75;;;3.62
19196;BMP280;9730;48.926;11.376;2022-11-20T04:38:28;96488.66;;;3.59
19196;BMP280;9730;48.926;11.376;2022-11-20T04:40:57;96482.59;;;3.66
19196;BMP280;9730;48.926;11.376;2022-11-20T04:43:25;96477.84;;;3.60
19196;BMP280;9730;48.926;11.376;2022-11-20T04:45:51;96470.97;;;3.65
19196;BMP280;9730;48.926;11.376;2022-11-20T04:48:18;96470.06;;;3.67
19196;BMP280;9730;48.926;11.376;2022-11-20T04:50:45;96469.75;;;3.76
19196;BMP280;9730;48.926;11.376;2022-11-20T04:53:13;96463.88;;;3.77
19196;BMP280;9730;48.926;11.376;2022-11-20T04:55:39;96465.41;;;3.81
19196;BMP280;9730;48.926;11.376;2022-11-20T04:58:07;96468.34;;;3.69
19196;BMP280;9730;48.926;11.376;2022-11-20T05:00:35;96458.50;;;3.65
19196;BMP280;9730;48.926;11.376;2022-11-20T05:03:02;96455.44;;;3.59
19196;BMP280;9730;48.926;11.376;2022-11-20T05:05:29;96441.66;;;3.71
19196;BMP280;9730;48.926;11.376;2022-11-20T05:07:56;96444.09;;;3.73
19196;BMP280;9730;48.926;11.376;2022-11-20T05:10:22;96432.19;;;3.81
19196;BMP280;9730;48.926;11.376;2022-11-20T05:12:49;96428.91;;;3.79
19196;BMP280;9730;48.926;11.376;2022-11-20T05:15:16;96422.09;;;3.84
19196;BMP280;9730;48.926;11.376;2022-11-20T05:17:47;96421.72;;;3.93
19196;BMP280;9730;48.926;11.376;2022-11-20T05:20:14;96420.88;;;3.94
19196;BMP280;9730;48.926;11.376;2022-11-20T05:22:41;96416.72;;;3.94
19196;BMP280;9730;48.926;11.376;2022-11-20T05:25:07;96416.59;;;3.97
19196;BMP280;9730;48.926;11.376;2022-11-20T05:27:34;96422.97;;;4.04
19196;BMP280;9730;48.926;11.376;2022-11-20T05:30:01;96426.03;;;3.89
19196;BMP280;9730;48.926;11.376;2022-11-20T05:32:27;96415.56;;;4.03
19196;BMP280;9730;48.926;11.376;2022-11-20T05:34:55;96421.28;;;4.05
19196;BMP280;9730;48.926;11.376;2022-11-20T05:37:22;96424.09;;;3.97
19196;BMP280;9730;48.926;11.376;2022-11-20T05:39:49;96427.56;;;3.93
19196;BMP280;9730;48.926;11.376;2022-11-20T05:42:15;96410.16;;;3.92
19196;BMP280;9730;48.926;11.376;2022-11-20T05:44:57;96412.28;;;4.01
19196;BMP280;9730;48.926;11.376;2022-11-20T05:47:24;96407.88;;;4.07
19196;BMP280;9730;48.926;11.376;2022-11-20T05:49:50;96420.44;;;4.06
19196;BMP280;9730;48.926;11.376;2022-11-20T05:52:18;96408.47;;;4.14
19196;BMP280;9730;48.926;11.376;2022-11-20T05:54:45;96409.28;;;4.14
19196;BMP280;9730;48.926;11.376;2022-11-20T05:57:11;96401.38;;;4.24
19196;BMP280;9730;48.926;11.376;2022-11-20T05:59:38;96401.38;;;4.24
19196;BMP280;9730;48.926;11.376;2022-11-20T06:02:04;96398.06;;;4.24
19196;BMP280;9730;48.926;11.376;2022-11-20T06:04:31;96399.72;;;4.25
19196;BMP280;9730;48.926;11.376;2022-11-20T06:06:57;96395.44;;;4.27
19196;BMP280;9730;48.926;11.376;2022-11-20T06:09:25;96405.31;;;4.30
19196;BMP280;9730;48.926;11.376;2022-11-20T06:11:52;96397.72;;;4.33
19196;BMP280;9730;48.926;11.376;2022-11-20T06:14:18;96401.09;;;4.32
19196;BMP280;9730;48.926;11.376;2022-11-20T06:16:45;96402.22;;;4.45
19196;BMP280;9730;48.926;11.376;2022-11-20T06:19:11;96403.75;;;4.49
19196;BMP280;9730;48.926;11.376;2022-11-20T06:21:38;96408.66;;;4.50
19196;BMP280;9730;48.926;11.376;2022-11-20T06:24:05;96418.59;;;4.52
19196;BMP280;9730;48.926;11.376;2022-11-20T06:26:33;96423.41;;;4.56
19196;BMP280;9730;48.926;11.376;2022-11-20T06:29:00;96424.03;;;4.61
19196;BMP280;9730;48.926;11.376;2022-11-20T06:31:26;96419.31;;;4.55
19196;BMP280;9730;48.926;11.376;2022-11-20T06:33:53;96421.53;;;4.61
19196;BMP280;9730;48.926;11.376;2022-11-20T06:36:21;96429.75;;;4.65
19196;BMP280;9730;48.926;11.376;2022-11-20T06:38:48;96433.69;;;4.70
19196;BMP280;9730;48.926;11.376;2022-11-20T06:41:16;96438.16;;;4.62
19196;BMP280;9730;48.926;11.376;2022-11-20T06:43:45;96446.13;;;4.50
19196;BMP280;9730;48.926;11.376;2022-11-20T06:46:13;96454.13;;;4.58
19196;BMP280;9730;48.926;11.376;2022-11-20T06:48:40;96458.34;;;4.58
19196;BMP280;9730;48.926;11.376;2022-11-20T06:51:07;96465.91;;;4.55
19196;BMP280;9730;48.926;11.376;2022-11-20T06:53:34;96473.59;;;4.50
19196;BMP280;9730;48.926;11.376;2022-11-20T06:56:01;96473.78;;;4.46
19196;BMP280;9730;48.926;11.376;2022-11-20T06:58:28;96490.16;;;4.53
19196;BMP280;9730;48.926;11.376;2022-11-20T07:00:58;96490.38;;;4.47
19196;BMP280;9730;48.926;11.376;2022-11-20T07:03:25;96487.59;;;4.54
19196;BMP280;9730;48.926;11.376;2022-11-20T07:05:54;96495.72;;;4.59
19196;BMP280;9730;48.926;11.376;2022-11-20T07:08:21;96519.13;;;4.57
19196;BMP280;9730;48.926;11.376;2022-11-20T07:10:47;96530.78;;;4.56
19196;BMP280;9730;48.926;11.376;2022-11-20T07:13:14;96532.41;;;4.57
19196;BMP280;9730;48.926;11.376;2022-11-20T07:15:40;96542.34;;;4.59
19196;BMP280;9730;48.926;11.376;2022-11-20T07:18:08;96554.69;;;4.63
19196;BMP280;9730;48.926;11.376;2022-11-20T07:20:35;96559.50;;;4.68
19196;BMP280;9730;48.926;11.376;2022-11-20T07:23:02;96563.78;;;4.64
19196;BMP280;9730;48.926;11.376;2022-11-20T07:25:28;96563.72;;;4.66
19196;BMP280;9730;48.926;11.376;2022-11-20T07:27:56;96587.84;;;4.67
19196;BMP280;9730;48.926;11.376;2022-11-20T07:30:23;96595.22;;;4.70
19196;BMP280;9730;48.926;11.376;2022-11-20T07:32:50;96616.78;;;4.72
19196;BMP280;9730;48.926;11.376;2022-11-20T07:35:18;96608.63;;;4.67
19196;BMP280;9730;48.926;11.376;2022-11-20T07:37:45;96608.69;;;4.66
19196;BMP280;9730;48.926;11.376;2022-11-20T07:40:12;96607.59;;;4.72
19196;BMP280;9730;48.926;11.376;2022-11-20T07:42:39;96605.44;;;4.64
19196;BMP280;9730;48.926;11.376;2022-11-20T07:45:06;96622.69;;;4.70
19196;BMP280;9730;48.926;11.376;2022-11-20T07:47:35;96616.59;;;4.76
19196;BMP280;9730;48.926;11.376;2022-11-20T07:50:01;96612.44;;;4.77
19196;BMP280;9730;48.926;11.376;2022-11-20T07:52:29;96620.69;;;4.79
19196;BMP280;9730;48.926;11.376;2022-11-20T07:54:56;96637.25;;;4.81
19196;BMP280;9730;48.926;11.376;2022-11-20T07:57:22;96641.16;;;4.88
19196;BMP280;9730;48.926;11.376;2022-11-20T07:59:49;96646.09;;;4.90
19196;BMP280;9730;48.926;11.376;2022-11-20T08:02:15;96642.34;;;4.78
19196;BMP280;9730;48.926;11.376;2022-11-20T08:04:42;96650.72;;;4.77
19196;BMP280;9730;48.926;11.376;2022-11-20T08:07:09;96647.88;;;4.86
19196;BMP280;9730;48.926;11.376;2022-11-20T08:09:36;96656.63;;;4.98
19196;BMP280;9730;48.926;11.376;2022-11-20T08:12:03;96675.94;;;4.93
19196;BMP280;9730;48.926;11.376;2022-11-20T08:14:47;96660.34;;;4.86
19196;BMP280;9730;48.926;11.376;2022-11-20T08:17:14;96674.16;;;4.96
19196;BMP280;9730;48.926;11.376;2022-11-20T08:19:40;96677.22;;;5.03
19196;BMP280;9730;48.926;11.376;2022-11-20T08:22:07;96684.59;;;5.07
19196;BMP280;9730;48.926;11.376;2022-11-20T08:24:33;96704.66;;;5.04
19196;BMP280;9730;48.926;11.376;2022-11-20T08:27:01;96701.13;;;5.10
19196;BMP280;9730;48.926;11.376;2022-11-20T08:29:28;96703.94;;;5.24
19196;BMP280;9730;48.926;11.376;2022-11-20T08:31:55;96719.34;;;5.34
19196;BMP280;9730;48.926;11.376;2022-11-20T08:34:21;96716.03;;;5.34
19196;BMP280;9730;48.926;11.376;2022-11-20T08:36:48;96717.63;;;5.36
19196;BMP280;9730;48.926;11.376;2022-11-20T08:39:14;96729.56;;;5.50
19196;BMP280;9730;48.926;11.376;2022-11-20T08:41:41;96729.81;;;5.44
19196;BMP280;9730;48.926;11.376;2022-11-20T08:44:09;96746.91;;;5.33
19196;BMP280;9730;48.926;11.376;2022-11-20T08:46:37;96736.38;;;5.25
19196;BMP280;9730;48.926;11.376;2022-11-20T08:49:04;96746.34;;;5.27
19196;BMP280;9730;48.926;11.376;2022-11-20T08:51:31;96746.44;;;5.24
19196;BMP280;9730;48.926;11.376;2022-11-20T08:53:58;96742.84;;;5.30
19196;BMP280;9730;48.926;11.376;2022-11-20T08:56:24;96746.56;;;5.42
19196;BMP280;9730;48.926;11.376;2022-11-20T08:58:51;96761.66;;;5.40
19196;BMP280;9730;48.926;11.376;2022-11-20T09:01:20;96766.16;;;5.31
19196;BMP280;9730;48.926;11.376;2022-11-20T09:03:47;96751.09;;;5.54
19196;BMP280;9730;48.926;11.376;2022-11-20T09:06:13;96750.41;;;5.72
19196;BMP280;9730;48.926;11.376;2022-11-20T09:08:40;96769.94;;;5.62
19196;BMP280;9730;48.926;11.376;2022-11-20T09:11:07;96766.81;;;5.57
19196;BMP280;9730;48.926;11.376;2022-11-20T09:13:34;96752.22;;;5.47
19196;BMP280;9730;48.926;11.376;2022-11-20T09:16:03;96758.91;;;5.46
19196;BMP280;9730;48.926;11.376;2022-11-20T09:18:31;96741.63;;;5.62
19196;BMP280;9730;48.926;11.376;2022-11-20T09:21:00;96727.53;;;5.59
19196;BMP280;9730;48.926;11.376;2022-11-20T09:23:30;96757.44;;;5.62
19196;BMP280;9730;48.926;11.376;2022-11-20T09:25:57;96766.25;;;5.72
19196;BMP280;9730;48.926;11.376;2022-11-20T09:28:25;96754.72;;;5.68
19196;BMP280;9730;48.926;11.376;2022-11-20T09:30:51;96741.88;;;5.77
19196;BMP280;9730;48.926;11.376;2022-11-20T09:33:18;96738.56;;;5.77
19196;BMP280;9730;48.926;11.376;2022-11-20T09:35:46;96760.47;;;5.70
19196;BMP280;9730;48.926;11.376;2022-11-20T09:38:12;96762.41;;;5.85
19196;BMP280;9730;48.926;11.376;2022-11-20T09:40:44;96751.34;;;5.90
19196;BMP280;9730;48.926;11.376;2022-11-20T09:43:15;96749.75;;;6.09
19196;BMP280;9730;48.926;11.376;2022-11-20T09:45:56;96747.00;;;6.15
19196;BMP280;9730;48.926;11.376;2022-11-20T09:48:42;96740.59;;;6.28
19196;BMP280;9730;48.926;11.376;2022-11-20T09:51:19;96746.41;;;6.09
19196;BMP280;9730;48.926;11.376;2022-11-20T09:53:57;96719.56;;;6.32
19196;BMP280;9730;48.926;11.376;2022-11-20T09:56:25;96746.22;;;6.13
19196;BMP280;9730;48.926;11.376;2022-11-20T09:58:54;96728.59;;;6.36
19196;BMP280;9730;48.926;11.376;2022-11-20T10:01:30;96728.53;;;6.37
19196;BMP280;9730;48.926;11.376;2022-11-20T10:03:59;96728.31;;;6.42
19196;BMP280;9730;48.926;11.376;2022-11-20T10:06:32;96733.63;;;6.54
19196;BMP280;9730;48.926;11.376;2022-11-20T10:09:12;96767.59;;;6.22
19196;BMP280;9730;48.926;11.376;2022-11-20T10:11:46;96747.22;;;6.49
19196;BMP280;9730;48.926;11.376;2022-11-20T10:14:23;96744.28;;;6.59
19196;BMP280;9730;48.926;11.376;2022-11-20T10:17:02;96735.75;;;6.63
19196;BMP280;9730;48.926;11.376;2022-11-20T10:19:40;96726.69;;;6.79
19196;BMP280;9730;48.926;11.376;2022-11-20T10:22:20;96729.28;;;6.78
19196;BMP280;9730;48.926;11.376;2022-11-20T10:24:56;96744.16;;;6.62
19196;BMP280;9730;48.926;11.376;2022-11-20T10:27:47;96737.75;;;6.37
19196;BMP280;9730;48.926;11.376;2022-11-20T10:30:17;96732.72;;;6.37
19196;BMP280;9730;48.926;11.376;2022-11-20T10:32:46;96733.47;;;6.19
19196;BMP280;9730;48.926;11.376;2022-11-20T10:35:21;96739.75;;;6.09
19196;BMP280;9730;48.926;11.376;2022-11-20T10:37:53;96726.84;;;6.18
19196;BMP280;9730;48.926;11.376;2022-11-20T10:40:27;96721.19;;;6.13
19196;BMP280;9730;48.926;11.376;2022-11-20T10:42:56;96722.41;;;6.25
19196;BMP280;9730;48.926;11.376;2022-11-20T10:45:35;96725.44;;;6.31
19196;BMP280;9730;48.926;11.376;2022-11-20T10:48:10;96749.88;;;6.26
19196;BMP280;9730;48.926;11.376;2022-11-20T10:50:44;96733.16;;;6.27
19196;BMP280;9730;48.926;11.376;2022-11-20T10:53:25;96726.72;;;6.41
19196;BMP280;9730;48.926;11.376;2022-11-20T10:55:58;96715.50;;;6.49
19196;BMP280;9730;48.926;11.376;2022-11-20T10:58:35;96723.19;;;6.45
19196;BMP280;9730;48.926;11.376;2022-11-20T11:01:04;96731.09;;;6.36
19196;BMP280;9730;48.926;11.376;2022-11-20T11:03:31;96728.09;;;6.48
19196;BMP280;9730;48.926;11.376;2022-11-20T11:06:03;96738.66;;;6.34
19196;BMP280;9730;48.926;11.376;2022-11-20T11:08:35;96753.38;;;6.22
19196;BMP280;9730;48.926;11.376;2022-11-20T11:11:10;96743.09;;;6.28
19196;BMP280;9730;48.926;11.376;2022-11-20T11:13:41;96724.72;;;6.29
19196;BMP280;9730;48.926;11.376;2022-11-20T11:16:19;96734.25;;;6.39
19196;BMP280;9730;48.926;11.376;2022-11-20T11:18:46;96749.06;;;6.26
19196;BMP280;9730;48.926;11.376;2022-11-20T11:21:13;96725.78;;;6.24
19196;BMP280;9730;48.926;11.376;2022-11-20T11:23:57;96738.22;;;6.25
19196;BMP280;9730;48.926;11.376;2022-11-20T11:26:24;96728.47;;;6.19
19196;BMP280;9730;48.926;11.376;2022-11-20T11:28:54;96744.25;;;6.21
19196;BMP280;9730;48.926;11.376;2022-11-20T11:31:25;96726.53;;;6.06
19196;BMP280;9730;48.926;11.376;2022-11-20T11:33:52;96706.06;;;6.16
19196;BMP280;9730;48.926;11.376;2022-11-20T11:36:29;96701.78;;;6.18
19196;BMP280;9730;48.926;11.376;2022-11-20T11:38:57;96696.78;;;6.18
19196;BMP280;9730;48.926;11.376;2022-11-20T11:41:28;96696.91;;;6.15
19196;BMP280;9730;48.926;11.376;2022-11-20T11:44:00;96693.66;;;5.93
19196;BMP280;9730;48.926;11.376;2022-11-20T11:46:51;96685.41;;;5.91
19196;BMP280;9730;48.926;11.376;2022-11-20T11:49:19;96679.75;;;6.06
19196;BMP280;9730;48.926;11.376;2022-11-20T11:51:57;96677.69;;;6.16
19196;BMP280;9730;48.926;11.376;2022-11-20T11:54:31;96686.34;;;6.09
19196;BMP280;9730;48.926;11.376;2022-11-20T11:57:03;96685.41;;;6.11
19196;BMP280;9730;48.926;11.376;2022-11-20T11:59:44;96673.84;;;6.27
19196;BMP280;9730;48.926;11.376;2022-11-20T12:02:22;96681.00;;;6.36
19196;BMP280;9730;48.926;11.376;2022-11-20T12:04:53;96683.00;;;6.48
19196;BMP280;9730;48.926;11.376;2022-11-20T12:07:29;96694.75;;;6.46
19196;BMP280;9730;48.926;11.376;2022-11-20T12:10:02;96692.25;;;6.64
19196;BMP280;9730;48.926;11.376;2022-11-20T12:12:32;96701.13;;;6.73
19196;BMP280;9730;48.926;11.376;2022-11-20T12:15:02;96702.56;;;6.77
19196;BMP280;9730;48.926;11.376;2022-11-20T12:17:30;96712.75;;;6.74
19196;BMP280;9730;48.926;11.376;2022-11-20T12:19:57;96699.06;;;6.62
19196;BMP280;9730;48.926;11.376;2022-11-20T12:22:32;96692.13;;;6.49
19196;BMP280;9730;48.926;11.376;2022-11-20T12:25:07;96670.78;;;6.59
19196;BMP280;9730;48.926;11.376;2022-11-20T12:30:34;96675.88;;;6.57
19196;BMP280;9730;48.926;11.376;2022-11-20T12:33:32;96679.13;;;6.41
19196;BMP280;9730;48.926;11.376;2022-11-20T12:36:08;96672.28;;;6.63
19196;BMP280;9730;48.926;11.376;2022-11-20T12:38:58;96693.88;;;6.47
19196;BMP280;9730;48.926;11.376;2022-11-20T12:41:40;96689.84;;;6.63
19196;BMP280;9730;48.926;11.376;2022-11-20T12:45:00;96682.09;;;6.49
19196;BMP280;9730;48.926;11.376;2022-11-20T12:47:55;96689.53;;;6.50
19196;BMP280;9730;48.926;11.376;2022-11-20T12:50:32;96679.00;;;6.44
19196;BMP280;9730;48.926;11.376;2022-11-20T12:53:04;96691.69;;;6.39
19196;BMP280;9730;48.926;11.376;2022-11-20T12:55:37;96690.31;;;6.32
19196;BMP280;9730;48.926;11.376;2022-11-20T12:58:12;96669.63;;;6.29
19196;BMP280;9730;48.926;11.376;2022-11-20T13:00:50;96653.66;;;6.32
19196;BMP280;9730;48.926;11.376;2022-11-20T13:03:43;96653.75;;;6.48
19196;BMP280;9730;48.926;11.376;2022-11-20T13:06:15;96667.06;;;6.49
19196;BMP280;9730;48.926;11.376;2022-11-20T13:08:48;96667.59;;;6.37
19196;BMP280;9730;48.926;11.376;2022-11-20T13:11:19;96672.31;;;6.25
19196;BMP280;9730;48.926;11.376;2022-11-20T13:14:03;96652.28;;;6.25
19196;BMP280;9730;48.926;11.376;2022-11-20T13:16:36;96657.97;;;6.28
19196;BMP280;9730;48.926;11.376;2022-11-20T13:19:05;96651.09;;;6.33
19196;BMP280;9730;48.926;11.376;2022-11-20T13:21:37;96655.44;;;6.48
19196;BMP280;9730;48.926;11.376;2022-11-20T13:24:04;96660.75;;;6.40
19196;BMP280;9730;48.926;11.376;2022-11-20T13:26:31;96647.28;;;6.43
19196;BMP280;9730;48.926;11.376;2022-11-20T13:29:12;96648.09;;;6.43
19196;BMP280;9730;48.926;11.376;2022-11-20T13:31:44;96634.97;;;6.57
19196;BMP280;9730;48.926;11.376;2022-11-20T13:34:11;96635.53;;;6.63
19196;BMP280;9730;48.926;11.376;2022-11-20T13:36:48;96639.13;;;6.58
19196;BMP280;9730;48.926;11.376;2022-11-20T13:39:24;96631.56;;;6.39
19196;BMP280;9730;48.926;11.376;2022-11-20T13:41:55;96624.22;;;6.55
19196;BMP280;9730;48.926;11.376;2022-11-20T13:44:29;96621.78;;;6.53
19196;BMP280;9730;48.926;11.376;2022-11-20T13:46:55;96635.13;;;6.72
19196;BMP280;9730;48.926;11.376;2022-11-20T13:49:26;96641.78;;;6.55
19196;BMP280;9730;48.926;11.376;2022-11-20T13:51:59;96653.00;;;6.65
19196;BMP280;9730;48.926;11.376;2022-11-20T13:58:02;96656.00;;;6.73
19196;BMP280;9730;48.926;11.376;2022-11-20T14:00:32;96651.66;;;6.58
19196;BMP280;9730;48.926;11.376;2022-11-20T14:03:05;96639.94;;;6.58
19196;BMP280;9730;48.926;11.376;2022-11-20T14:05:36;96655.97;;;6.54
19196;BMP280;9730;48.926;11.376;2022-11-20T14:08:04;96646.56;;;6.59
19196;BMP280;9730;48.926;11.376;2022-11-20T14:10:32;96642.03;;;6.67
19196;BMP280;9730;48.926;11.376;2022-11-20T14:13:10;96657.47;;;6.58
19196;BMP280;9730;48.926;11.376;2022-11-20T14:15:38;96666.13;;;6.70
19196;BMP280;9730;48.926;11.376;2022-11-20T14:18:12;96666.91;;;6.72
19196;BMP280;9730;48.926;11.376;2022-11-20T14:20:39;96644.06;;;6.59
19196;BMP280;9730;48.926;11.376;2022-11-20T14:23:09;96652.16;;;6.46
19196;BMP280;9730;48.926;11.376;2022-11-20T14:25:36;96651.03;;;6.53
19196;BMP280;9730;48.926;11.376;2022-11-20T14:28:04;96655.16;;;6.54
19196;BMP280;9730;48.926;11.376;2022-11-20T14:30:39;96659.97;;;6.58
19196;BMP280;9730;48.926;11.376;2022-11-20T14:33:10;96663.97;;;6.62
19196;BMP280;9730;48.926;11.376;2022-11-20T14:35:44;96669.53;;;6.69
19196;BMP280;9730;48.926;11.376;2022-11-20T14:38:14;96663.91;;;6.64
19196;BMP280;9730;48.926;11.376;2022-11-20T14:40:40;96657.81;;;6.69
19196;BMP280;9730;48.926;11.376;2022-11-20T14:43:17;96668.31;;;6.77